sensor_id;sensor_type;location;lat;lon;timestamp;temperature;humidity
41437;DHT22;27178;49.460;10.850;2022-07-23T00:01:04;28.30;48.20
41437;DHT22;27178;49.460;10.850;2022-07-23T00:03:33;28.20;48.30
41437;DHT22;27178;49.460;10.850;2022-07-23T00:06:01;28.20;48.00
41437;DHT22;27178;49.460;10.850;2022-07-23T00:08:35;28.20;48.10
41437;DHT22;27178;49.460;10.850;2022-07-23T00:11:04;28.10;47.90
41437;DHT22;27178;49.460;10.850;2022-07-23T00:13:33;28.20;48.20
41437;DHT22;27178;49.460;10.850;2022-07-23T00:16:02;28.20;48.70
41437;DHT22;27178;49.460;10.850;2022-07-23T00:18:30;28.10;48.70
41437;DHT22;27178;49.460;10.850;2022-07-23T00:20:59;28.20;48.60
41437;DHT22;27178;49.460;10.850;2022-07-23T00:23:27;28.20;48.50
41437;DHT22;27178;49.460;10.850;2022-07-23T00:25:56;28.10;48.50
41437;DHT22;27178;49.460;10.850;2022-07-23T00:28:25;28.10;48.50
41437;DHT22;27178;49.460;10.850;2022-07-23T00:30:55;28.10;48.60
41437;DHT22;27178;49.460;10.850;2022-07-23T00:33:23;28.10;48.70
41437;DHT22;27178;49.460;10.850;2022-07-23T00:35:52;28.10;48.60
41437;DHT22;27178;49.460;10.850;2022-07-23T00:38:20;28.00;48.50
41437;DHT22;27178;49.460;10.850;2022-07-23T00:40:48;28.00;48.50
41437;DHT22;27178;49.460;10.850;2022-07-23T00:43:18;28.00;48.50
41437;DHT22;27178;49.460;10.850;2022-07-23T00:45:47;27.90;48.70
41437;DHT22;27178;49.460;10.850;2022-07-23T00:48:17;27.90;48.60
41437;DHT22;27178;49.460;10.850;2022-07-23T00:50:46;27.80;48.90
41437;DHT22;27178;49.460;10.850;2022-07-23T00:53:15;27.80;48.80
41437;DHT22;27178;49.460;10.850;2022-07-23T00:55:43;27.80;48.90
41437;DHT22;27178;49.460;10.850;2022-07-23T00:58:12;27.80;49.00
41437;DHT22;27178;49.460;10.850;2022-07-23T01:00:41;27.80;49.00
41437;DHT22;27178;49.460;10.850;2022-07-23T01:03:09;27.70;49.30
41437;DHT22;27178;49.460;10.850;2022-07-23T01:05:39;27.70;49.60
41437;DHT22;27178;49.460;10.850;2022-07-23T01:08:07;27.70;49.60
41437;DHT22;27178;49.460;10.850;2022-07-23T01:10:36;27.70;49.60
41437;DHT22;27178;49.460;10.850;2022-07-23T01:13:06;27.70;49.80
41437;DHT22;27178;49.460;10.850;2022-07-23T01:15:36;27.60;49.70
41437;DHT22;27178;49.460;10.850;2022-07-23T01:18:05;27.60;50.40
41437;DHT22;27178;49.460;10.850;2022-07-23T01:20:34;27.60;49.40
41437;DHT22;27178;49.460;10.850;2022-07-23T01:23:04;27.60;49.50
41437;DHT22;27178;49.460;10.850;2022-07-23T01:25:33;27.60;49.40
41437;DHT22;27178;49.460;10.850;2022-07-23T01:28:01;27.60;49.20
41437;DHT22;27178;49.460;10.850;2022-07-23T01:30:29;27.60;49.30
41437;DHT22;27178;49.460;10.850;2022-07-23T01:32:58;27.60;49.40
41437;DHT22;27178;49.460;10.850;2022-07-23T01:35:26;27.60;49.40
41437;DHT22;27178;49.460;10.850;2022-07-23T01:37:54;27.60;49.30
41437;DHT22;27178;49.460;10.850;2022-07-23T01:40:24;27.60;49.20
41437;DHT22;27178;49.460;10.850;2022-07-23T01:42:53;27.60;49.30
41437;DHT22;27178;49.460;10.850;2022-07-23T01:45:22;27.70;49.30
41437;DHT22;27178;49.460;10.850;2022-07-23T01:47:50;27.60;49.20
41437;DHT22;27178;49.460;10.850;2022-07-23T01:50:19;27.60;49.30
41437;DHT22;27178;49.460;10.850;2022-07-23T01:52:48;27.60;49.60
41437;DHT22;27178;49.460;10.850;2022-07-23T01:55:16;27.60;49.60
41437;DHT22;27178;49.460;10.850;2022-07-23T01:57:47;27.60;49.60
41437;DHT22;27178;49.460;10.850;2022-07-23T02:00:15;27.60;49.80
41437;DHT22;27178;49.460;10.850;2022-07-23T02:02:44;27.50;49.80
41437;DHT22;27178;49.460;10.850;2022-07-23T02:05:12;27.50;49.60
41437;DHT22;27178;49.460;10.850;2022-07-23T02:07:41;27.50;49.60
41437;DHT22;27178;49.460;10.850;2022-07-23T02:10:09;27.50;49.70
41437;DHT22;27178;49.460;10.850;2022-07-23T02:12:38;27.50;49.60
41437;DHT22;27178;49.460;10.850;2022-07-23T02:15:08;27.50;49.60
41437;DHT22;27178;49.460;10.850;2022-07-23T02:17:39;27.50;49.60
41437;DHT22;27178;49.460;10.850;2022-07-23T02:20:09;27.50;49.70
41437;DHT22;27178;49.460;10.850;2022-07-23T02:22:38;27.40;49.60
41437;DHT22;27178;49.460;10.850;2022-07-23T02:25:08;27.50;49.50
41437;DHT22;27178;49.460;10.850;2022-07-23T02:27:36;27.40;49.30
41437;DHT22;27178;49.460;10.850;2022-07-23T02:30:07;27.40;49.10
41437;DHT22;27178;49.460;10.850;2022-07-23T02:32:36;27.50;49.20
41437;DHT22;27178;49.460;10.850;2022-07-23T02:35:07;27.50;49.00
41437;DHT22;27178;49.460;10.850;2022-07-23T02:37:35;27.50;49.00
41437;DHT22;27178;49.460;10.850;2022-07-23T02:40:05;27.50;49.00
41437;DHT22;27178;49.460;10.850;2022-07-23T02:42:33;27.50;49.20
41437;DHT22;27178;49.460;10.850;2022-07-23T02:45:02;27.60;49.50
41437;DHT22;27178;49.460;10.850;2022-07-23T02:47:32;27.50;49.50
41437;DHT22;27178;49.460;10.850;2022-07-23T02:50:01;27.50;49.50
41437;DHT22;27178;49.460;10.850;2022-07-23T02:52:30;27.50;49.10
41437;DHT22;27178;49.460;10.850;2022-07-23T02:54:59;27.50;49.40
41437;DHT22;27178;49.460;10.850;2022-07-23T02:57:27;27.50;49.50
41437;DHT22;27178;49.460;10.850;2022-07-23T02:59:55;27.50;49.60
41437;DHT22;27178;49.460;10.850;2022-07-23T03:02:24;27.50;49.50
41437;DHT22;27178;49.460;10.850;2022-07-23T03:04:54;27.50;49.50
41437;DHT22;27178;49.460;10.850;2022-07-23T03:07:22;27.40;49.30
41437;DHT22;27178;49.460;10.850;2022-07-23T03:09:50;27.40;49.40
41437;DHT22;27178;49.460;10.850;2022-07-23T03:12:19;27.40;49.40
41437;DHT22;27178;49.460;10.850;2022-07-23T03:14:47;27.40;49.50
41437;DHT22;27178;49.460;10.850;2022-07-23T03:17:15;27.40;49.40
41437;DHT22;27178;49.460;10.850;2022-07-23T03:19:44;27.40;49.50
41437;DHT22;27178;49.460;10.850;2022-07-23T03:22:14;27.40;49.70
41437;DHT22;27178;49.460;10.850;2022-07-23T03:24:42;27.30;49.60
41437;DHT22;27178;49.460;10.850;2022-07-23T03:27:23;27.30;49.60
41437;DHT22;27178;49.460;10.850;2022-07-23T03:29:53;27.30;49.80
41437;DHT22;27178;49.460;10.850;2022-07-23T03:32:23;27.30;49.80
41437;DHT22;27178;49.460;10.850;2022-07-23T03:34:52;27.30;49.80
41437;DHT22;27178;49.460;10.850;2022-07-23T03:37:22;27.20;49.90
41437;DHT22;27178;49.460;10.850;2022-07-23T03:39:51;27.20;49.80
41437;DHT22;27178;49.460;10.850;2022-07-23T03:42:20;27.20;49.70
41437;DHT22;27178;49.460;10.850;2022-07-23T03:44:48;27.20;49.80
41437;DHT22;27178;49.460;10.850;2022-07-23T03:47:17;27.20;49.80
41437;DHT22;27178;49.460;10.850;2022-07-23T03:49:48;27.20;49.90
41437;DHT22;27178;49.460;10.850;2022-07-23T03:52:17;27.20;49.80
41437;DHT22;27178;49.460;10.850;2022-07-23T03:54:47;27.20;50.00
41437;DHT22;27178;49.460;10.850;2022-07-23T03:57:16;27.20;49.80
41437;DHT22;27178;49.460;10.850;2022-07-23T03:59:44;27.10;49.70
41437;DHT22;27178;49.460;10.850;2022-07-23T04:02:12;27.10;49.70
41437;DHT22;27178;49.460;10.850;2022-07-23T04:04:41;27.10;49.60
41437;DHT22;27178;49.460;10.850;2022-07-23T04:07:09;27.10;49.70
41437;DHT22;27178;49.460;10.850;2022-07-23T04:09:37;27.10;49.60
41437;DHT22;27178;49.460;10.850;2022-07-23T04:12:13;27.10;49.50
41437;DHT22;27178;49.460;10.850;2022-07-23T04:14:42;27.10;49.50
41437;DHT22;27178;49.460;10.850;2022-07-23T04:17:10;27.20;49.50
41437;DHT22;27178;49.460;10.850;2022-07-23T04:19:39;27.10;49.40
41437;DHT22;27178;49.460;10.850;2022-07-23T04:22:09;27.10;49.30
41437;DHT22;27178;49.460;10.850;2022-07-23T04:24:37;27.10;49.30
41437;DHT22;27178;49.460;10.850;2022-07-23T04:27:06;27.10;49.40
41437;DHT22;27178;49.460;10.850;2022-07-23T04:29:36;27.10;49.20
41437;DHT22;27178;49.460;10.850;2022-07-23T04:32:05;27.10;49.20
41437;DHT22;27178;49.460;10.850;2022-07-23T04:34:34;27.10;49.20
41437;DHT22;27178;49.460;10.850;2022-07-23T04:37:02;27.20;49.30
41437;DHT22;27178;49.460;10.850;2022-07-23T04:39:30;27.20;49.30
41437;DHT22;27178;49.460;10.850;2022-07-23T04:41:59;27.20;49.20
41437;DHT22;27178;49.460;10.850;2022-07-23T04:44:28;27.20;49.30
41437;DHT22;27178;49.460;10.850;2022-07-23T04:46:57;27.20;49.20
41437;DHT22;27178;49.460;10.850;2022-07-23T04:49:26;27.20;49.20
41437;DHT22;27178;49.460;10.850;2022-07-23T04:51:54;27.20;49.20
41437;DHT22;27178;49.460;10.850;2022-07-23T04:54:23;27.20;49.00
41437;DHT22;27178;49.460;10.850;2022-07-23T04:56:51;27.20;49.20
41437;DHT22;27178;49.460;10.850;2022-07-23T04:59:27;27.20;49.10
41437;DHT22;27178;49.460;10.850;2022-07-23T05:01:56;27.20;49.10
41437;DHT22;27178;49.460;10.850;2022-07-23T05:04:25;27.20;49.10
41437;DHT22;27178;49.460;10.850;2022-07-23T05:06:53;27.20;49.20
41437;DHT22;27178;49.460;10.850;2022-07-23T05:09:21;27.20;49.10
41437;DHT22;27178;49.460;10.850;2022-07-23T05:11:50;27.20;49.10
41437;DHT22;27178;49.460;10.850;2022-07-23T05:14:18;27.20;49.10
41437;DHT22;27178;49.460;10.850;2022-07-23T05:16:48;27.20;49.10
41437;DHT22;27178;49.460;10.850;2022-07-23T05:19:16;27.20;49.10
41437;DHT22;27178;49.460;10.850;2022-07-23T05:21:47;27.20;49.20
41437;DHT22;27178;49.460;10.850;2022-07-23T05:24:16;27.20;49.20
41437;DHT22;27178;49.460;10.850;2022-07-23T05:26:45;27.30;49.20
41437;DHT22;27178;49.460;10.850;2022-07-23T05:29:13;27.30;49.20
41437;DHT22;27178;49.460;10.850;2022-07-23T05:31:41;27.30;49.90
41437;DHT22;27178;49.460;10.850;2022-07-23T05:34:11;27.30;49.20
41437;DHT22;27178;49.460;10.850;2022-07-23T05:36:43;27.30;49.20
41437;DHT22;27178;49.460;10.850;2022-07-23T05:39:12;27.40;49.30
41437;DHT22;27178;49.460;10.850;2022-07-23T05:41:41;27.40;49.10
41437;DHT22;27178;49.460;10.850;2022-07-23T05:44:09;27.40;49.20
41437;DHT22;27178;49.460;10.850;2022-07-23T05:46:37;27.40;49.20
41437;DHT22;27178;49.460;10.850;2022-07-23T05:49:06;27.50;49.30
41437;DHT22;27178;49.460;10.850;2022-07-23T05:51:36;27.50;49.20
41437;DHT22;27178;49.460;10.850;2022-07-23T05:54:05;27.40;49.10
41437;DHT22;27178;49.460;10.850;2022-07-23T05:56:33;27.60;49.30
41437;DHT22;27178;49.460;10.850;2022-07-23T05:59:02;27.60;49.10
41437;DHT22;27178;49.460;10.850;2022-07-23T06:01:31;27.60;49.10
41437;DHT22;27178;49.460;10.850;2022-07-23T06:04:00;27.60;49.10
41437;DHT22;27178;49.460;10.850;2022-07-23T06:06:28;27.60;49.00
41437;DHT22;27178;49.460;10.850;2022-07-23T06:08:58;27.60;49.10
41437;DHT22;27178;49.460;10.850;2022-07-23T06:11:27;27.60;49.10
41437;DHT22;27178;49.460;10.850;2022-07-23T06:13:56;27.60;49.00
41437;DHT22;27178;49.460;10.850;2022-07-23T06:16:25;27.60;49.00
41437;DHT22;27178;49.460;10.850;2022-07-23T06:18:53;27.60;49.00
41437;DHT22;27178;49.460;10.850;2022-07-23T06:21:22;27.60;48.90
41437;DHT22;27178;49.460;10.850;2022-07-23T06:24:11;27.70;49.00
41437;DHT22;27178;49.460;10.850;2022-07-23T06:26:40;27.70;48.80
41437;DHT22;27178;49.460;10.850;2022-07-23T06:29:09;27.70;48.90
41437;DHT22;27178;49.460;10.850;2022-07-23T06:31:37;27.70;48.80
41437;DHT22;27178;49.460;10.850;2022-07-23T06:34:06;27.70;48.80
41437;DHT22;27178;49.460;10.850;2022-07-23T06:36:37;27.80;48.90
41437;DHT22;27178;49.460;10.850;2022-07-23T06:39:08;27.80;48.90
41437;DHT22;27178;49.460;10.850;2022-07-23T06:41:38;27.80;48.80
41437;DHT22;27178;49.460;10.850;2022-07-23T06:44:06;27.80;48.80
41437;DHT22;27178;49.460;10.850;2022-07-23T06:46:34;27.90;48.90
41437;DHT22;27178;49.460;10.850;2022-07-23T06:49:03;27.90;48.80
41437;DHT22;27178;49.460;10.850;2022-07-23T06:51:33;28.00;48.80
41437;DHT22;27178;49.460;10.850;2022-07-23T06:54:02;28.00;48.70
41437;DHT22;27178;49.460;10.850;2022-07-23T06:56:30;28.10;48.70
41437;DHT22;27178;49.460;10.850;2022-07-23T06:59:00;28.10;48.70
41437;DHT22;27178;49.460;10.850;2022-07-23T07:01:29;28.10;48.60
41437;DHT22;27178;49.460;10.850;2022-07-23T07:03:58;28.20;48.60
41437;DHT22;27178;49.460;10.850;2022-07-23T07:06:27;28.20;48.50
41437;DHT22;27178;49.460;10.850;2022-07-23T07:08:55;28.30;48.60
41437;DHT22;27178;49.460;10.850;2022-07-23T07:11:23;28.30;48.50
41437;DHT22;27178;49.460;10.850;2022-07-23T07:13:52;28.30;48.40
41437;DHT22;27178;49.460;10.850;2022-07-23T07:16:22;28.40;48.40
41437;DHT22;27178;49.460;10.850;2022-07-23T07:18:56;28.40;48.30
41437;DHT22;27178;49.460;10.850;2022-07-23T07:21:25;28.50;48.20
41437;DHT22;27178;49.460;10.850;2022-07-23T07:23:53;28.50;48.10
41437;DHT22;27178;49.460;10.850;2022-07-23T07:26:21;28.50;48.10
41437;DHT22;27178;49.460;10.850;2022-07-23T07:28:50;28.50;48.10
41437;DHT22;27178;49.460;10.850;2022-07-23T07:31:18;28.60;48.10
41437;DHT22;27178;49.460;10.850;2022-07-23T07:33:48;28.60;48.20
41437;DHT22;27178;49.460;10.850;2022-07-23T07:36:17;28.60;48.20
41437;DHT22;27178;49.460;10.850;2022-07-23T07:38:46;28.50;48.20
41437;DHT22;27178;49.460;10.850;2022-07-23T07:41:15;28.60;48.30
41437;DHT22;27178;49.460;10.850;2022-07-23T07:43:43;28.60;48.40
41437;DHT22;27178;49.460;10.850;2022-07-23T07:46:12;28.50;48.50
41437;DHT22;27178;49.460;10.850;2022-07-23T07:48:40;28.50;48.60
41437;DHT22;27178;49.460;10.850;2022-07-23T07:51:10;28.50;48.70
41437;DHT22;27178;49.460;10.850;2022-07-23T07:53:38;28.50;48.80
41437;DHT22;27178;49.460;10.850;2022-07-23T07:56:07;28.50;48.90
41437;DHT22;27178;49.460;10.850;2022-07-23T07:58:36;28.50;48.90
41437;DHT22;27178;49.460;10.850;2022-07-23T08:01:05;28.50;48.90
41437;DHT22;27178;49.460;10.850;2022-07-23T08:03:33;28.50;48.70
41437;DHT22;27178;49.460;10.850;2022-07-23T08:06:03;28.60;48.50
41437;DHT22;27178;49.460;10.850;2022-07-23T08:08:33;28.60;48.40
41437;DHT22;27178;49.460;10.850;2022-07-23T08:11:01;28.50;48.20
41437;DHT22;27178;49.460;10.850;2022-07-23T08:13:30;28.60;48.20
41437;DHT22;27178;49.460;10.850;2022-07-23T08:15:58;28.60;48.20
41437;DHT22;27178;49.460;10.850;2022-07-23T08:18:27;28.50;48.20
41437;DHT22;27178;49.460;10.850;2022-07-23T08:20:55;28.50;48.30
41437;DHT22;27178;49.460;10.850;2022-07-23T08:23:24;28.50;48.30
41437;DHT22;27178;49.460;10.850;2022-07-23T08:25:57;28.40;48.20
41437;DHT22;27178;49.460;10.850;2022-07-23T08:28:26;28.40;48.30
41437;DHT22;27178;49.460;10.850;2022-07-23T08:30:54;28.40;48.40
41437;DHT22;27178;49.460;10.850;2022-07-23T08:33:23;28.30;48.50
41437;DHT22;27178;49.460;10.850;2022-07-23T08:36:00;28.30;48.60
41437;DHT22;27178;49.460;10.850;2022-07-23T08:38:30;28.30;48.60
41437;DHT22;27178;49.460;10.850;2022-07-23T08:41:00;28.20;48.70
41437;DHT22;27178;49.460;10.850;2022-07-23T08:43:30;28.20;48.90
41437;DHT22;27178;49.460;10.850;2022-07-23T08:46:00;28.10;49.00
41437;DHT22;27178;49.460;10.850;2022-07-23T08:48:32;28.10;49.10
41437;DHT22;27178;49.460;10.850;2022-07-23T08:51:02;28.10;49.10
41437;DHT22;27178;49.460;10.850;2022-07-23T08:53:34;28.00;49.30
41437;DHT22;27178;49.460;10.850;2022-07-23T08:56:06;28.00;49.40
41437;DHT22;27178;49.460;10.850;2022-07-23T08:58:36;28.00;49.40
41437;DHT22;27178;49.460;10.850;2022-07-23T09:01:04;28.00;49.40
41437;DHT22;27178;49.460;10.850;2022-07-23T09:03:34;28.00;49.20
41437;DHT22;27178;49.460;10.850;2022-07-23T09:06:03;28.00;49.30
41437;DHT22;27178;49.460;10.850;2022-07-23T09:08:35;27.90;49.20
41437;DHT22;27178;49.460;10.850;2022-07-23T09:11:07;28.00;49.30
41437;DHT22;27178;49.460;10.850;2022-07-23T09:13:38;28.00;49.30
41437;DHT22;27178;49.460;10.850;2022-07-23T09:16:11;28.00;49.30
41437;DHT22;27178;49.460;10.850;2022-07-23T09:18:43;28.00;49.30
41437;DHT22;27178;49.460;10.850;2022-07-23T09:21:17;28.00;49.60
41437;DHT22;27178;49.460;10.850;2022-07-23T09:23:49;28.00;49.60
41437;DHT22;27178;49.460;10.850;2022-07-23T09:29:09;28.10;50.50
41437;DHT22;27178;49.460;10.850;2022-07-23T09:31:48;28.00;50.80
41437;DHT22;27178;49.460;10.850;2022-07-23T09:34:23;28.00;51.30
41437;DHT22;27178;49.460;10.850;2022-07-23T09:36:52;28.00;51.90
41437;DHT22;27178;49.460;10.850;2022-07-23T09:39:29;27.90;52.10
41437;DHT22;27178;49.460;10.850;2022-07-23T09:42:13;27.80;53.90
41437;DHT22;27178;49.460;10.850;2022-07-23T09:44:42;27.80;54.30
41437;DHT22;27178;49.460;10.850;2022-07-23T09:47:11;27.60;54.00
41437;DHT22;27178;49.460;10.850;2022-07-23T09:49:39;27.50;54.80
41437;DHT22;27178;49.460;10.850;2022-07-23T09:52:08;27.40;54.90
41437;DHT22;27178;49.460;10.850;2022-07-23T09:54:37;27.20;54.50
41437;DHT22;27178;49.460;10.850;2022-07-23T09:57:09;27.20;55.10
41437;DHT22;27178;49.460;10.850;2022-07-23T09:59:41;27.00;55.10
41437;DHT22;27178;49.460;10.850;2022-07-23T10:02:11;27.00;56.40
41437;DHT22;27178;49.460;10.850;2022-07-23T10:04:40;26.90;57.50
41437;DHT22;27178;49.460;10.850;2022-07-23T10:07:09;26.80;57.50
41437;DHT22;27178;49.460;10.850;2022-07-23T10:09:39;26.70;58.40
41437;DHT22;27178;49.460;10.850;2022-07-23T10:12:12;26.50;59.40
41437;DHT22;27178;49.460;10.850;2022-07-23T10:15:00;26.40;62.50
41437;DHT22;27178;49.460;10.850;2022-07-23T10:17:29;26.30;62.60
41437;DHT22;27178;49.460;10.850;2022-07-23T10:19:58;26.20;63.40
41437;DHT22;27178;49.460;10.850;2022-07-23T10:22:29;26.10;63.30
41437;DHT22;27178;49.460;10.850;2022-07-23T10:25:08;26.10;64.20
41437;DHT22;27178;49.460;10.850;2022-07-23T10:27:50;26.00;64.60
41437;DHT22;27178;49.460;10.850;2022-07-23T10:30:28;26.00;65.20
41437;DHT22;27178;49.460;10.850;2022-07-23T10:33:11;25.90;65.30
41437;DHT22;27178;49.460;10.850;2022-07-23T10:35:48;25.80;65.10
41437;DHT22;27178;49.460;10.850;2022-07-23T10:38:21;25.80;63.90
41437;DHT22;27178;49.460;10.850;2022-07-23T10:40:57;25.80;63.90
41437;DHT22;27178;49.460;10.850;2022-07-23T10:43:27;25.80;64.20
41437;DHT22;27178;49.460;10.850;2022-07-23T10:46:20;25.80;63.60
41437;DHT22;27178;49.460;10.850;2022-07-23T10:49:23;25.80;63.10
41437;DHT22;27178;49.460;10.850;2022-07-23T10:52:21;25.80;64.00
41437;DHT22;27178;49.460;10.850;2022-07-23T10:54:52;25.80;63.10
41437;DHT22;27178;49.460;10.850;2022-07-23T10:57:21;25.90;62.60
41437;DHT22;27178;49.460;10.850;2022-07-23T11:00:15;26.00;63.00
41437;DHT22;27178;49.460;10.850;2022-07-23T11:02:45;26.00;62.90
41437;DHT22;27178;49.460;10.850;2022-07-23T11:05:16;26.10;62.60
41437;DHT22;27178;49.460;10.850;2022-07-23T11:10:52;26.30;62.20
41437;DHT22;27178;49.460;10.850;2022-07-23T11:13:41;26.40;61.20
41437;DHT22;27178;49.460;10.850;2022-07-23T11:16:25;26.60;60.60
41437;DHT22;27178;49.460;10.850;2022-07-23T11:19:14;26.70;61.20
41437;DHT22;27178;49.460;10.850;2022-07-23T11:21:50;26.80;60.90
41437;DHT22;27178;49.460;10.850;2022-07-23T11:24:21;26.80;60.30
41437;DHT22;27178;49.460;10.850;2022-07-23T11:27:05;26.90;60.10
41437;DHT22;27178;49.460;10.850;2022-07-23T11:29:41;27.00;60.40
41437;DHT22;27178;49.460;10.850;2022-07-23T11:32:27;27.00;59.90
41437;DHT22;27178;49.460;10.850;2022-07-23T11:34:56;27.10;60.00
41437;DHT22;27178;49.460;10.850;2022-07-23T11:37:36;27.10;59.40
41437;DHT22;27178;49.460;10.850;2022-07-23T11:40:08;27.20;59.80
41437;DHT22;27178;49.460;10.850;2022-07-23T11:42:37;27.20;59.50
41437;DHT22;27178;49.460;10.850;2022-07-23T11:45:08;27.30;59.30
41437;DHT22;27178;49.460;10.850;2022-07-23T11:47:37;27.30;59.30
41437;DHT22;27178;49.460;10.850;2022-07-23T11:50:07;27.40;59.20
41437;DHT22;27178;49.460;10.850;2022-07-23T11:52:36;27.60;59.00
41437;DHT22;27178;49.460;10.850;2022-07-23T11:55:06;27.70;59.00
41437;DHT22;27178;49.460;10.850;2022-07-23T11:57:36;27.80;58.70
41437;DHT22;27178;49.460;10.850;2022-07-23T12:00:07;27.90;58.30
41437;DHT22;27178;49.460;10.850;2022-07-23T12:02:40;28.00;58.80
41437;DHT22;27178;49.460;10.850;2022-07-23T12:05:11;28.10;58.10
41437;DHT22;27178;49.460;10.850;2022-07-23T12:07:42;28.30;58.60
41437;DHT22;27178;49.460;10.850;2022-07-23T12:10:13;28.40;58.10
41437;DHT22;27178;49.460;10.850;2022-07-23T12:12:43;28.60;58.00
41437;DHT22;27178;49.460;10.850;2022-07-23T12:15:14;28.80;58.10
41437;DHT22;27178;49.460;10.850;2022-07-23T12:17:45;29.00;58.00
41437;DHT22;27178;49.460;10.850;2022-07-23T12:20:20;29.20;57.70
41437;DHT22;27178;49.460;10.850;2022-07-23T12:22:50;29.40;56.50
41437;DHT22;27178;49.460;10.850;2022-07-23T12:25:20;29.70;56.10
41437;DHT22;27178;49.460;10.850;2022-07-23T12:28:00;29.90;56.00
41437;DHT22;27178;49.460;10.850;2022-07-23T12:30:32;30.10;55.20
41437;DHT22;27178;49.460;10.850;2022-07-23T12:33:03;30.30;55.10
41437;DHT22;27178;49.460;10.850;2022-07-23T12:35:34;30.50;54.90
41437;DHT22;27178;49.460;10.850;2022-07-23T12:38:06;30.70;54.90
41437;DHT22;27178;49.460;10.850;2022-07-23T12:40:37;30.80;54.50
41437;DHT22;27178;49.460;10.850;2022-07-23T12:43:07;31.00;54.20
41437;DHT22;27178;49.460;10.850;2022-07-23T12:45:44;31.20;53.50
41437;DHT22;27178;49.460;10.850;2022-07-23T12:48:20;31.40;53.50
41437;DHT22;27178;49.460;10.850;2022-07-23T12:50:56;31.50;52.60
41437;DHT22;27178;49.460;10.850;2022-07-23T12:53:27;31.70;53.20
41437;DHT22;27178;49.460;10.850;2022-07-23T12:56:02;31.80;52.50
41437;DHT22;27178;49.460;10.850;2022-07-23T12:58:44;32.00;52.10
41437;DHT22;27178;49.460;10.850;2022-07-23T13:01:25;32.10;52.00
41437;DHT22;27178;49.460;10.850;2022-07-23T13:03:59;32.20;51.50
41437;DHT22;27178;49.460;10.850;2022-07-23T13:06:34;32.30;51.60
41437;DHT22;27178;49.460;10.850;2022-07-23T13:09:05;32.50;51.30
41437;DHT22;27178;49.460;10.850;2022-07-23T13:11:35;32.50;51.20
41437;DHT22;27178;49.460;10.850;2022-07-23T13:14:04;32.60;50.50
41437;DHT22;27178;49.460;10.850;2022-07-23T13:16:35;32.60;50.10
41437;DHT22;27178;49.460;10.850;2022-07-23T13:19:05;32.60;50.00
41437;DHT22;27178;49.460;10.850;2022-07-23T13:21:38;32.60;49.60
41437;DHT22;27178;49.460;10.850;2022-07-23T13:24:09;32.60;49.10
41437;DHT22;27178;49.460;10.850;2022-07-23T13:26:39;32.50;49.00
41437;DHT22;27178;49.460;10.850;2022-07-23T13:29:08;32.40;48.80
41437;DHT22;27178;49.460;10.850;2022-07-23T13:31:37;32.30;49.00
41437;DHT22;27178;49.460;10.850;2022-07-23T13:34:08;32.20;49.30
41437;DHT22;27178;49.460;10.850;2022-07-23T13:36:36;32.10;49.60
41437;DHT22;27178;49.460;10.850;2022-07-23T13:39:05;32.10;50.00
41437;DHT22;27178;49.460;10.850;2022-07-23T13:41:35;32.10;50.00
41437;DHT22;27178;49.460;10.850;2022-07-23T13:44:04;32.00;49.80
41437;DHT22;27178;49.460;10.850;2022-07-23T13:46:33;32.10;49.10
41437;DHT22;27178;49.460;10.850;2022-07-23T13:49:02;32.10;49.20
41437;DHT22;27178;49.460;10.850;2022-07-23T13:51:37;32.10;48.80
41437;DHT22;27178;49.460;10.850;2022-07-23T13:54:05;32.00;47.50
41437;DHT22;27178;49.460;10.850;2022-07-23T13:56:35;31.90;48.10
41437;DHT22;27178;49.460;10.850;2022-07-23T13:59:03;31.90;48.20
41437;DHT22;27178;49.460;10.850;2022-07-23T14:01:33;31.80;48.10
41437;DHT22;27178;49.460;10.850;2022-07-23T14:04:22;31.70;48.10
41437;DHT22;27178;49.460;10.850;2022-07-23T14:06:52;31.70;48.10
41437;DHT22;27178;49.460;10.850;2022-07-23T14:09:20;31.70;47.50
41437;DHT22;27178;49.460;10.850;2022-07-23T14:11:51;31.60;47.50
41437;DHT22;27178;49.460;10.850;2022-07-23T14:14:19;31.60;47.50
41437;DHT22;27178;49.460;10.850;2022-07-23T14:16:48;31.60;47.80
41437;DHT22;27178;49.460;10.850;2022-07-23T14:19:16;31.50;47.90
41437;DHT22;27178;49.460;10.850;2022-07-23T14:21:45;31.50;47.60
41437;DHT22;27178;49.460;10.850;2022-07-23T14:24:17;31.60;47.60
41437;DHT22;27178;49.460;10.850;2022-07-23T14:26:47;31.60;47.60
41437;DHT22;27178;49.460;10.850;2022-07-23T14:29:16;31.60;47.30
41437;DHT22;27178;49.460;10.850;2022-07-23T14:31:45;31.70;46.40
41437;DHT22;27178;49.460;10.850;2022-07-23T14:34:13;31.80;46.80
41437;DHT22;27178;49.460;10.850;2022-07-23T14:36:42;31.80;46.70
41437;DHT22;27178;49.460;10.850;2022-07-23T14:39:10;31.80;46.30
41437;DHT22;27178;49.460;10.850;2022-07-23T14:41:41;31.80;46.20
41437;DHT22;27178;49.460;10.850;2022-07-23T14:44:09;31.90;46.10
41437;DHT22;27178;49.460;10.850;2022-07-23T14:46:38;31.90;45.70
41437;DHT22;27178;49.460;10.850;2022-07-23T14:49:06;31.90;45.60
41437;DHT22;27178;49.460;10.850;2022-07-23T14:51:36;31.90;45.70
41437;DHT22;27178;49.460;10.850;2022-07-23T14:54:05;32.00;45.80
41437;DHT22;27178;49.460;10.850;2022-07-23T14:56:33;32.00;45.80
41437;DHT22;27178;49.460;10.850;2022-07-23T14:59:05;32.00;45.60
41437;DHT22;27178;49.460;10.850;2022-07-23T15:01:33;32.10;45.30
41437;DHT22;27178;49.460;10.850;2022-07-23T15:04:04;32.10;45.20
41437;DHT22;27178;49.460;10.850;2022-07-23T15:06:53;32.10;45.00
41437;DHT22;27178;49.460;10.850;2022-07-23T15:09:21;32.10;45.00
41437;DHT22;27178;49.460;10.850;2022-07-23T15:11:50;32.10;44.60
41437;DHT22;27178;49.460;10.850;2022-07-23T15:14:20;32.00;44.40
41437;DHT22;27178;49.460;10.850;2022-07-23T15:16:54;32.00;44.60
41437;DHT22;27178;49.460;10.850;2022-07-23T15:19:22;32.00;44.70
41437;DHT22;27178;49.460;10.850;2022-07-23T15:21:51;31.90;44.50
41437;DHT22;27178;49.460;10.850;2022-07-23T15:24:19;31.90;44.50
41437;DHT22;27178;49.460;10.850;2022-07-23T15:26:48;31.90;44.40
41437;DHT22;27178;49.460;10.850;2022-07-23T15:29:16;31.90;43.80
41437;DHT22;27178;49.460;10.850;2022-07-23T15:31:48;31.90;44.00
41437;DHT22;27178;49.460;10.850;2022-07-23T15:34:24;31.90;43.70
41437;DHT22;27178;49.460;10.850;2022-07-23T15:36:53;31.80;43.40
41437;DHT22;27178;49.460;10.850;2022-07-23T15:39:22;31.80;43.50
41437;DHT22;27178;49.460;10.850;2022-07-23T15:41:51;31.80;43.70